Terminal Aerodrome Forecast
Issued by NWS

Home | Current Version | Previous Version | Text Only | Print | Product List | Glossary On
Versions: 1 2 3 4 5 6 7 8 9 10 11 12 13 14 15 16 17 18 19 20 21 22 23
000
FTUS46 KSEW 261700
TAFHQM
TAF
KHQM 261720Z 2618/2718 09005KT 1SM BR BKN002
      TEMPO 2618/2620 1/4SM FG VV002
     FM262000 18005KT P6SM SCT030 BKN150 BKN200
     FM270300 10004KT P6SM BKN200
     FM270900 00000KT 3SM BR OVC010=

USA.gov is the U.S. government's official web portal to all federal, state and local government web resources and services.